Time;durP1;ratioP1;P1;durP2;ratioP2;P2;SDS_P1;SDS_P2;PMS_P1;PMS_P2;Temp;Humidity;BMP_temperature;BMP_pressure;BME280_temperature;BME280_humidity;BME280_pressure;Samples;Min_cycle;Max_cycle;Signal;HPM_P1;HPM_P2
2023/09/09 00:02:13;;;;;;;154.82;115.70;;;18.90;99.90;;;;;;5063559;28;38208;-81
2023/09/09 00:04:40;;;;;;;148.32;115.13;;;18.80;99.90;;;;;;5069241;28;36467;-82
2023/09/09 00:07:06;;;;;;;151.82;116.05;;;18.80;99.90;;;;;;5061918;28;37794;-83
2023/09/09 00:09:32;;;;;;;152.65;115.70;;;18.80;99.90;;;;;;5052002;28;37982;-81
2023/09/09 00:11:59;;;;;;;153.27;116.47;;;18.80;99.90;;;;;;5053779;28;37498;-82
2023/09/09 00:14:25;;;;;;;154.57;115.30;;;18.70;99.90;;;;;;5062567;28;39041;-81
2023/09/09 00:16:52;;;;;;;159.15;119.90;;;18.70;99.90;;;;;;5047766;28;37590;-81
2023/09/09 00:19:21;;;;;;;166.07;123.38;;;18.70;99.90;;;;;;5064278;28;39492;-82
2023/09/09 00:21:49;;;;;;;165.23;122.30;;;18.70;99.90;;;;;;5048445;28;38135;-82
2023/09/09 00:24:16;;;;;;;168.73;124.72;;;18.70;99.90;;;;;;5051586;28;37142;-81
2023/09/09 00:26:42;;;;;;;171.65;124.65;;;18.70;99.90;;;;;;5073557;28;36519;-82
2023/09/09 00:29:08;;;;;;;161.13;119.70;;;18.60;99.90;;;;;;5063952;28;39698;-81
2023/09/09 00:31:34;;;;;;;167.70;124.07;;;18.60;99.90;;;;;;5049767;28;38127;-82
2023/09/09 00:34:00;;;;;;;170.85;124.07;;;18.60;99.90;;;;;;5049824;28;37435;-82
2023/09/09 00:36:26;;;;;;;170.65;124.28;;;18.60;99.90;;;;;;5029961;28;37070;-81
2023/09/09 00:38:53;;;;;;;175.40;126.15;;;18.60;99.90;;;;;;5029871;28;39271;-82
2023/09/09 00:41:20;;;;;;;163.38;121.60;;;18.50;99.90;;;;;;5030074;28;38511;-80
2023/09/09 00:43:46;;;;;;;164.88;119.22;;;18.50;99.90;;;;;;5039463;28;38028;-80
2023/09/09 00:46:16;;;;;;;153.70;115.53;;;18.40;99.90;;;;;;5045653;28;37006;-83
2023/09/09 00:48:42;;;;;;;145.43;113.53;;;18.40;99.90;;;;;;5042461;28;37964;-82
2023/09/09 00:51:12;;;;;;;153.43;115.60;;;18.30;99.90;;;;;;5057289;28;38588;-82
2023/09/09 00:53:39;;;;;;;147.80;112.50;;;18.20;99.90;;;;;;5046700;28;40607;-82
2023/09/09 00:56:06;;;;;;;149.93;111.85;;;18.20;99.90;;;;;;5057382;28;38033;-84
2023/09/09 00:58:32;;;;;;;154.20;113.20;;;18.20;99.90;;;;;;5059036;28;39722;-83
2023/09/09 01:03:34;;;;;;;148.85;109.70;;;18.20;99.90;;;;;;5147006;22;20041;-84
2023/09/09 01:06:02;;;;;;;137.88;105.80;;;18.10;99.90;;;;;;5049604;28;35116;-84
2023/09/09 01:08:29;;;;;;;139.70;105.15;;;18.10;99.90;;;;;;5070795;28;48864;-84
2023/09/09 01:10:56;;;;;;;143.52;106.22;;;18.20;99.90;;;;;;5095470;28;35619;-85
2023/09/09 01:13:25;;;;;;;141.77;106.60;;;18.10;99.90;;;;;;5085004;28;37275;-85
2023/09/09 01:15:52;;;;;;;136.02;101.93;;;18.10;99.90;;;;;;5083590;28;37859;-86
2023/09/09 01:18:19;;;;;;;134.25;102.13;;;18.10;99.90;;;;;;5084544;28;39007;-83
2023/09/09 01:21:01;;;;;;;129.93;98.30;;;18.10;99.90;;;;;;5076792;28;39066;-84
2023/09/09 01:23:27;;;;;;;122.55;93.72;;;18.00;99.90;;;;;;5078124;28;38259;-84
2023/09/09 01:25:53;;;;;;;123.20;95.57;;;18.00;99.90;;;;;;5081723;28;37925;-86
2023/09/09 01:28:22;;;;;;;118.90;94.43;;;18.00;99.90;;;;;;5081295;28;39339;-85
2023/09/09 01:30:49;;;;;;;114.50;90.20;;;18.00;99.90;;;;;;5080877;28;38359;-85
2023/09/09 01:33:16;;;;;;;107.85;84.07;;;18.00;99.90;;;;;;5099797;27;37474;-84
2023/09/09 01:35:42;;;;;;;109.90;87.45;;;18.00;99.90;;;;;;5081626;28;37892;-83
2023/09/09 01:38:08;;;;;;;103.18;81.95;;;17.90;99.90;;;;;;5077800;28;38891;-85
2023/09/09 01:40:34;;;;;;;99.57;80.63;;;17.90;99.90;;;;;;5077002;28;39556;-85
2023/09/09 01:43:00;;;;;;;93.32;77.22;;;17.80;99.90;;;;;;5079352;28;38167;-85
2023/09/09 01:45:26;;;;;;;93.05;75.32;;;17.80;99.90;;;;;;5082234;28;36359;-85
2023/09/09 01:47:52;;;;;;;89.07;74.85;;;17.80;99.90;;;;;;5077767;28;37827;-85
2023/09/09 01:50:19;;;;;;;81.63;69.03;;;17.80;99.90;;;;;;5081888;28;38816;-85
2023/09/09 01:52:45;;;;;;;86.90;71.47;;;17.70;99.90;;;;;;5075524;28;37310;-84
2023/09/09 01:55:11;;;;;;;81.05;69.35;;;17.70;99.90;;;;;;5081931;28;36814;-84
2023/09/09 01:57:37;;;;;;;82.07;67.70;;;17.70;99.90;;;;;;5097276;28;37868;-86
2023/09/09 02:00:07;;;;;;;77.47;64.88;;;17.60;99.90;;;;;;5083886;28;37476;-87
2023/09/09 02:02:33;;;;;;;75.43;62.55;;;17.60;99.90;;;;;;5080170;28;37210;-86
2023/09/09 02:04:59;;;;;;;76.10;62.78;;;17.60;99.90;;;;;;5084855;28;35198;-85
2023/09/09 02:07:25;;;;;;;79.50;63.55;;;17.60;99.90;;;;;;5074952;28;37823;-84
2023/09/09 02:09:52;;;;;;;70.22;58.33;;;17.50;99.90;;;;;;5079510;28;37110;-84
2023/09/09 02:12:18;;;;;;;77.03;63.05;;;17.50;99.90;;;;;;5074958;28;37626;-84
2023/09/09 02:14:44;;;;;;;71.32;61.13;;;17.40;99.90;;;;;;5080399;28;38122;-85
2023/09/09 02:17:12;;;;;;;71.38;59.38;;;17.40;99.90;;;;;;5077078;28;37880;-86
2023/09/09 02:19:38;;;;;;;71.43;58.05;;;17.40;99.90;;;;;;5077718;28;38512;-85
2023/09/09 02:22:05;;;;;;;65.60;57.92;;;17.40;99.90;;;;;;5076524;28;36927;-84
2023/09/09 02:24:31;;;;;;;67.93;57.05;;;17.40;99.90;;;;;;5090306;28;36078;-85
2023/09/09 02:26:57;;;;;;;68.03;57.20;;;17.40;99.90;;;;;;5077790;28;37830;-85
2023/09/09 02:29:24;;;;;;;66.20;55.05;;;17.40;99.90;;;;;;5073822;28;39505;-85
2023/09/09 02:31:50;;;;;;;68.20;54.65;;;17.40;99.90;;;;;;5079000;28;37738;-85
2023/09/09 02:34:16;;;;;;;66.03;55.28;;;17.30;99.90;;;;;;5077135;28;36240;-84
2023/09/09 02:36:44;;;;;;;66.57;55.28;;;17.30;99.90;;;;;;5074966;28;38996;-86
2023/09/09 02:39:10;;;;;;;68.97;56.03;;;17.30;99.90;;;;;;5082042;28;38220;-85
2023/09/09 02:41:36;;;;;;;69.13;54.15;;;17.30;99.90;;;;;;5077538;28;38940;-85
2023/09/09 02:44:02;;;;;;;66.53;53.83;;;17.30;99.90;;;;;;5075399;28;36355;-84
2023/09/09 02:46:28;;;;;;;72.78;56.55;;;17.30;99.90;;;;;;5077037;28;37751;-84
2023/09/09 02:48:55;;;;;;;66.20;52.05;;;17.30;99.90;;;;;;5083176;28;39567;-85
2023/09/09 02:51:21;;;;;;;65.97;53.15;;;17.30;99.90;;;;;;5093231;27;37043;-84
2023/09/09 02:53:47;;;;;;;68.28;53.10;;;17.20;99.90;;;;;;5082087;28;34980;-86
2023/09/09 02:56:13;;;;;;;64.93;51.58;;;17.30;99.90;;;;;;5080497;28;39771;-86
2023/09/09 02:58:39;;;;;;;61.75;49.60;;;17.20;99.90;;;;;;5083251;28;38513;-85
2023/09/09 03:01:06;;;;;;;65.38;52.25;;;17.20;99.90;;;;;;5085465;28;37084;-85
2023/09/09 03:03:35;;;;;;;62.70;50.50;;;17.20;99.90;;;;;;5084519;28;37854;-86
2023/09/09 03:06:02;;;;;;;61.90;50.97;;;17.10;99.90;;;;;;5088880;28;38609;-84
2023/09/09 03:08:28;;;;;;;59.30;48.80;;;17.10;99.90;;;;;;5090862;27;39126;-86
2023/09/09 03:10:54;;;;;;;67.65;51.83;;;17.10;99.90;;;;;;5124197;27;37614;-84
2023/09/09 03:13:20;;;;;;;65.85;52.85;;;17.00;99.90;;;;;;5098770;27;37421;-85
2023/09/09 03:15:46;;;;;;;61.60;50.60;;;17.00;99.90;;;;;;5093163;27;39851;-83
2023/09/09 03:18:12;;;;;;;67.65;52.50;;;17.00;99.90;;;;;;5101301;28;37050;-84
2023/09/09 03:20:38;;;;;;;59.20;49.90;;;17.00;99.90;;;;;;5101446;27;37286;-86
2023/09/09 03:23:04;;;;;;;58.13;47.03;;;16.90;99.90;;;;;;5099276;28;38910;-86
2023/09/09 03:25:31;;;;;;;61.47;49.17;;;16.90;99.90;;;;;;5101974;28;37989;-86
2023/09/09 03:27:57;;;;;;;62.58;49.78;;;16.80;99.90;;;;;;5089555;28;39495;-86
2023/09/09 03:30:23;;;;;;;56.78;47.20;;;16.80;99.90;;;;;;5098675;27;37339;-86
2023/09/09 03:32:49;;;;;;;58.38;47.03;;;16.80;99.90;;;;;;5080992;28;36727;-86
2023/09/09 03:35:15;;;;;;;56.17;45.00;;;16.80;99.90;;;;;;5080849;28;39061;-87
2023/09/09 03:37:41;;;;;;;57.55;47.75;;;16.80;99.90;;;;;;5084019;28;38552;-87
2023/09/09 03:40:08;;;;;;;59.72;45.47;;;16.80;99.90;;;;;;5084263;28;38685;-88
2023/09/09 03:42:34;;;;;;;58.45;46.45;;;16.90;99.90;;;;;;5080450;28;36358;-87
2023/09/09 03:45:00;;;;;;;51.83;43.90;;;16.90;99.90;;;;;;5081023;28;37839;-87
2023/09/09 03:47:26;;;;;;;56.75;45.40;;;16.90;99.90;;;;;;5080643;28;37899;-87
2023/09/09 03:49:55;;;;;;;53.72;43.00;;;16.80;99.90;;;;;;5083659;28;38257;-87
2023/09/09 03:52:21;;;;;;;59.40;45.03;;;16.90;99.90;;;;;;5078073;28;37376;-86
2023/09/09 03:54:48;;;;;;;53.25;41.13;;;16.90;99.90;;;;;;5080233;28;37837;-86
2023/09/09 03:57:14;;;;;;;67.38;46.85;;;16.90;99.90;;;;;;5074652;27;37993;-87
2023/09/09 03:59:40;;;;;;;73.20;50.25;;;16.90;99.90;;;;;;5076826;28;36890;-86
2023/09/09 04:02:06;;;;;;;70.65;47.30;;;16.90;99.90;;;;;;5080454;28;37322;-86
2023/09/09 04:04:32;;;;;;;64.93;44.78;;;16.90;99.90;;;;;;5082305;28;38537;-85
2023/09/09 04:06:58;;;;;;;70.22;46.45;;;16.90;99.90;;;;;;5082787;28;37276;-85
2023/09/09 04:09:26;;;;;;;65.15;43.15;;;16.80;99.90;;;;;;5080312;28;38090;-86
2023/09/09 04:11:53;;;;;;;75.75;47.75;;;16.80;99.90;;;;;;5080104;28;36293;-87
2023/09/09 04:14:19;;;;;;;77.93;47.78;;;16.90;99.90;;;;;;5083366;28;39350;-86
2023/09/09 04:16:45;;;;;;;79.43;46.15;;;16.90;99.90;;;;;;5081654;27;38036;-85
2023/09/09 04:19:11;;;;;;;66.38;44.10;;;16.90;99.90;;;;;;5076493;28;38286;-87
2023/09/09 04:21:37;;;;;;;67.95;44.72;;;16.80;99.90;;;;;;5081969;28;38391;-87
2023/09/09 04:24:04;;;;;;;65.78;44.10;;;16.80;99.90;;;;;;5079472;27;36437;-87
2023/09/09 04:26:30;;;;;;;73.78;45.85;;;16.90;99.90;;;;;;5079750;28;37706;-86
2023/09/09 04:28:56;;;;;;;74.80;46.28;;;16.80;99.90;;;;;;5078274;28;38691;-86
2023/09/09 04:31:22;;;;;;;68.80;44.67;;;16.90;99.90;;;;;;5084132;28;36473;-87
2023/09/09 04:33:48;;;;;;;117.65;49.33;;;16.90;99.90;;;;;;5076650;28;37880;-86
2023/09/09 04:36:14;;;;;;;73.50;46.70;;;16.90;99.90;;;;;;5080976;28;39425;-86
2023/09/09 04:38:40;;;;;;;125.60;48.70;;;16.90;99.90;;;;;;5085286;28;37915;-86
2023/09/09 04:41:06;;;;;;;145.27;51.28;;;16.90;99.90;;;;;;5087065;28;37714;-86
2023/09/09 04:43:32;;;;;;;87.47;47.50;;;17.00;99.90;;;;;;5096836;28;37652;-85
2023/09/09 04:45:58;;;;;;;84.28;48.40;;;17.00;99.90;;;;;;5086096;27;39449;-86
2023/09/09 04:48:25;;;;;;;88.53;48.80;;;17.00;99.90;;;;;;5081570;28;37216;-86
2023/09/09 04:50:51;;;;;;;98.80;49.90;;;17.10;99.90;;;;;;5077684;28;36577;-87
2023/09/09 04:53:17;;;;;;;117.80;52.50;;;17.10;99.90;;;;;;5095440;27;39286;-87
2023/09/09 04:55:43;;;;;;;119.32;53.92;;;17.10;99.90;;;;;;5094010;28;38246;-87
2023/09/09 04:58:10;;;;;;;101.38;50.03;;;17.10;99.90;;;;;;5087667;28;37808;-86
2023/09/09 05:00:36;;;;;;;137.88;52.55;;;17.20;99.90;;;;;;5079448;28;36462;-84
2023/09/09 05:03:03;;;;;;;104.28;50.78;;;17.20;99.90;;;;;;5080246;28;38979;-84
2023/09/09 05:05:29;;;;;;;116.35;54.15;;;17.20;99.90;;;;;;5078569;28;38962;-86
2023/09/09 05:07:55;;;;;;;102.13;52.03;;;17.30;99.90;;;;;;5082968;28;37884;-86
2023/09/09 05:10:22;;;;;;;129.50;50.42;;;17.30;99.90;;;;;;5090423;28;37255;-85
2023/09/09 05:12:48;;;;;;;97.63;48.97;;;17.30;99.90;;;;;;5087295;28;38985;-84
2023/09/09 05:15:16;;;;;;;94.80;47.97;;;17.30;99.90;;;;;;5082538;28;37675;-85
2023/09/09 05:17:42;;;;;;;96.28;51.10;;;17.40;99.90;;;;;;5078424;28;37230;-84
2023/09/09 05:20:09;;;;;;;86.88;46.80;;;17.40;99.90;;;;;;5073935;28;36491;-85
2023/09/09 05:22:41;;;;;;;79.03;43.67;;;17.50;99.90;;;;;;5079400;28;39553;-86
2023/09/09 05:25:07;;;;;;;191.25;59.33;;;17.50;99.90;;;;;;5042386;28;37276;-84
2023/09/09 05:27:34;;;;;;;156.13;60.03;;;17.50;99.90;;;;;;5085549;27;39235;-84
2023/09/09 05:30:00;;;;;;;124.30;53.95;;;17.50;99.90;;;;;;5075857;28;37339;-85
2023/09/09 05:32:26;;;;;;;105.28;50.35;;;17.50;99.90;;;;;;5078238;28;38503;-85
2023/09/09 05:34:52;;;;;;;103.07;49.90;;;17.50;99.90;;;;;;5080631;28;38342;-85
2023/09/09 05:37:18;;;;;;;91.78;47.50;;;17.50;99.90;;;;;;5083826;28;37228;-85
2023/09/09 05:39:44;;;;;;;104.22;49.00;;;17.50;99.90;;;;;;5086094;28;37231;-84
2023/09/09 05:42:13;;;;;;;87.60;46.70;;;17.50;99.90;;;;;;5079342;28;39333;-85
2023/09/09 05:44:39;;;;;;;81.53;44.72;;;17.50;99.90;;;;;;5091660;27;37149;-84
2023/09/09 05:47:06;;;;;;;78.70;44.03;;;17.50;99.90;;;;;;5074471;28;38038;-85
2023/09/09 05:49:33;;;;;;;78.57;44.83;;;17.50;99.90;;;;;;5081987;28;36796;-84
2023/09/09 05:51:59;;;;;;;118.60;50.95;;;17.50;99.90;;;;;;5084488;28;39901;-85
2023/09/09 05:54:25;;;;;;;88.57;44.95;;;17.50;99.90;;;;;;5082783;27;37306;-84
2023/09/09 05:56:51;;;;;;;79.88;44.80;;;17.50;99.90;;;;;;5075382;28;37281;-86
2023/09/09 05:59:17;;;;;;;89.15;46.25;;;17.40;99.90;;;;;;5077699;28;36704;-86
2023/09/09 06:01:43;;;;;;;94.78;48.75;;;17.50;99.90;;;;;;5074549;28;39003;-85
2023/09/09 06:04:10;;;;;;;92.35;51.63;;;17.50;99.90;;;;;;5086149;28;37748;-86
2023/09/09 06:06:36;;;;;;;93.13;51.72;;;17.50;99.90;;;;;;5085949;28;37495;-85
2023/09/09 06:09:02;;;;;;;84.80;48.95;;;17.50;99.90;;;;;;5089002;28;36264;-85
2023/09/09 06:11:28;;;;;;;92.07;50.70;;;17.40;99.90;;;;;;5074688;28;38691;-86
2023/09/09 06:13:54;;;;;;;80.07;48.88;;;17.40;99.90;;;;;;5072542;28;37202;-85
2023/09/09 06:16:20;;;;;;;92.20;47.25;;;17.50;99.90;;;;;;5073504;28;37158;-89
2023/09/09 06:18:47;;;;;;;76.55;45.78;;;17.50;99.90;;;;;;5084217;28;39592;-88
2023/09/09 06:21:13;;;;;;;83.72;44.60;;;17.50;99.90;;;;;;5081953;28;38425;-86
2023/09/09 06:23:39;;;;;;;73.93;43.53;;;17.60;99.90;;;;;;5084980;28;39384;-86
2023/09/09 06:26:05;;;;;;;72.25;43.40;;;17.70;99.90;;;;;;5090404;27;36963;-89
2023/09/09 06:28:37;;;;;;;98.72;49.67;;;17.90;99.90;;;;;;5089775;28;37388;-90
2023/09/09 06:31:07;;;;;;;66.03;40.55;;;18.00;99.90;;;;;;5092985;28;37798;-89
2023/09/09 06:33:34;;;;;;;75.30;43.42;;;18.00;99.90;;;;;;5086460;28;38634;-88
2023/09/09 06:36:00;;;;;;;77.88;46.38;;;18.10;99.90;;;;;;5079185;28;38909;-87
2023/09/09 06:38:26;;;;;;;69.53;41.60;;;18.20;99.90;;;;;;5089421;28;37151;-86
2023/09/09 06:40:52;;;;;;;82.10;48.22;;;18.20;99.90;;;;;;5092535;28;38771;-86
2023/09/09 06:43:20;;;;;;;81.20;45.50;;;18.30;99.90;;;;;;5088199;28;38324;-85
2023/09/09 06:45:48;;;;;;;74.85;45.13;;;18.40;99.90;;;;;;5086467;28;36482;-86
2023/09/09 06:48:17;;;;;;;71.20;45.22;;;18.50;99.90;;;;;;5081753;28;37473;-88
2023/09/09 06:50:45;;;;;;;75.70;46.95;;;18.60;99.90;;;;;;5091393;28;39058;-87
2023/09/09 06:53:11;;;;;;;74.05;47.78;;;18.60;99.90;;;;;;5104229;27;37307;-86
2023/09/09 06:55:38;;;;;;;82.88;52.72;;;18.70;99.90;;;;;;5091219;28;37469;-85
2023/09/09 06:58:08;;;;;;;86.50;53.22;;;18.80;99.90;;;;;;5092275;28;36544;-84
2023/09/09 07:00:34;;;;;;;91.07;58.38;;;18.80;99.90;;;;;;5082573;28;38206;-88
2023/09/09 07:03:00;;;;;;;80.40;54.33;;;18.90;99.90;;;;;;5079870;28;37455;-86
2023/09/09 07:05:26;;;;;;;85.10;54.10;;;19.00;99.90;;;;;;5084510;28;41338;-85
2023/09/09 07:07:52;;;;;;;83.45;54.75;;;19.10;99.90;;;;;;5086780;28;36131;-85
2023/09/09 07:10:18;;;;;;;82.50;58.05;;;19.10;99.90;;;;;;5086871;28;37752;-83
2023/09/09 07:12:45;;;;;;;97.28;65.70;;;19.20;99.90;;;;;;5082105;28;37341;-84
2023/09/09 07:15:11;;;;;;;82.47;58.88;;;19.30;99.90;;;;;;5082194;28;37979;-81
2023/09/09 07:17:37;;;;;;;89.50;63.67;;;19.40;99.90;;;;;;5088785;28;36335;-83
2023/09/09 07:20:08;;;;;;;111.40;76.90;;;19.50;99.90;;;;;;5081654;28;37457;-85
2023/09/09 07:22:34;;;;;;;105.60;76.22;;;19.60;99.90;;;;;;5079877;28;47209;-80
2023/09/09 07:25:00;;;;;;;111.13;80.95;;;19.70;99.90;;;;;;5081068;28;37211;-86
2023/09/09 07:27:26;;;;;;;112.35;81.97;;;19.80;99.90;;;;;;5086686;28;37374;-85
2023/09/09 07:29:53;;;;;;;105.40;80.97;;;19.90;99.90;;;;;;5088039;28;39213;-86
2023/09/09 07:32:19;;;;;;;109.53;79.65;;;20.00;99.90;;;;;;5088032;27;37953;-85
2023/09/09 07:34:45;;;;;;;110.50;81.47;;;20.10;99.90;;;;;;5088087;28;37350;-85
2023/09/09 07:37:11;;;;;;;112.03;84.75;;;20.20;99.90;;;;;;5083596;28;37970;-86
2023/09/09 07:39:49;;;;;;;95.47;71.55;;;20.30;99.90;;;;;;5088087;28;39853;-85
2023/09/09 07:42:16;;;;;;;104.43;76.30;;;20.40;99.90;;;;;;5089449;28;38715;-87
2023/09/09 07:44:43;;;;;;;110.20;82.30;;;20.40;99.90;;;;;;5089517;28;37360;-85
2023/09/09 07:47:09;;;;;;;92.07;68.18;;;20.50;99.90;;;;;;5088411;28;36608;-83
2023/09/09 07:49:36;;;;;;;92.55;70.15;;;20.60;99.90;;;;;;5086522;28;38804;-87
2023/09/09 07:52:03;;;;;;;87.18;67.13;;;20.70;99.90;;;;;;5082338;27;38677;-83
2023/09/09 07:54:30;;;;;;;85.57;64.65;;;20.80;99.90;;;;;;5085419;28;37646;-83
2023/09/09 07:56:58;;;;;;;87.30;69.32;;;20.90;99.90;;;;;;5084582;28;37783;-84
2023/09/09 07:59:31;;;;;;;82.53;63.20;;;21.00;99.90;;;;;;5085991;28;37581;-83
2023/09/09 08:01:57;;;;;;;67.45;55.70;;;21.10;99.90;;;;;;5085746;28;37912;-83
2023/09/09 08:04:23;;;;;;;68.13;56.08;;;21.10;99.90;;;;;;5091919;28;38117;-85
2023/09/09 08:06:52;;;;;;;61.95;48.30;;;21.20;99.90;;;;;;5086021;28;36400;-84
2023/09/09 08:09:20;;;;;;;61.22;46.60;;;21.30;99.90;;;;;;5089848;28;39778;-83
2023/09/09 08:11:47;;;;;;;55.42;46.50;;;21.30;99.90;;;;;;5062633;28;37577;-84
2023/09/09 08:14:14;;;;;;;63.22;50.97;;;21.40;99.90;;;;;;5089548;27;36938;-85
2023/09/09 08:16:43;;;;;;;61.60;48.38;;;21.50;99.90;;;;;;5088447;28;37796;-84
2023/09/09 08:19:09;;;;;;;57.65;47.50;;;21.80;99.90;;;;;;5081512;28;38022;-85
2023/09/09 08:21:36;;;;;;;47.53;41.20;;;22.00;99.90;;;;;;5077431;28;37789;-84
2023/09/09 08:24:02;;;;;;;38.65;31.75;;;22.20;99.90;;;;;;5069512;28;38947;-83
2023/09/09 08:26:31;;;;;;;37.60;30.88;;;22.40;99.90;;;;;;5068148;28;36983;-83
2023/09/09 08:28:59;;;;;;;30.10;26.75;;;22.60;99.90;;;;;;5069096;28;38778;-85
2023/09/09 08:31:26;;;;;;;29.90;26.25;;;22.90;99.90;;;;;;5073475;28;40101;-83
2023/09/09 08:33:52;;;;;;;33.85;28.58;;;23.30;99.90;;;;;;5079914;28;38460;-81
2023/09/09 08:36:18;;;;;;;27.25;24.35;;;23.60;99.90;;;;;;5070420;28;37290;-82
2023/09/09 08:38:44;;;;;;;25.50;22.42;;;23.90;99.90;;;;;;5068428;28;39441;-81
2023/09/09 08:41:24;;;;;;;23.95;21.15;;;24.10;99.90;;;;;;5077001;28;39252;-81
2023/09/09 08:44:25;;;;;;;26.48;23.70;;;24.30;99.90;;;;;;5091091;28;38640;-83
2023/09/09 08:46:57;;;;;;;23.92;18.65;;;24.30;99.90;;;;;;5058418;28;47175;-85
2023/09/09 08:49:28;;;;;;;25.27;19.08;;;24.50;99.90;;;;;;5072405;28;38596;-80
2023/09/09 08:52:02;;;;;;;22.60;19.95;;;24.80;99.90;;;;;;5077932;28;37444;-81
2023/09/09 08:54:28;;;;;;;18.92;16.90;;;24.90;99.90;;;;;;5085060;28;48060;-82
2023/09/09 08:56:57;;;;;;;26.83;23.77;;;25.10;99.90;;;;;;5076192;28;37127;-85
2023/09/09 08:59:28;;;;;;;25.42;21.80;;;25.10;99.90;;;;;;5087856;28;38604;-87
2023/09/09 09:01:56;;;;;;;23.83;19.45;;;25.30;99.90;;;;;;5078751;28;38617;-87
2023/09/09 09:04:22;;;;;;;19.92;17.90;;;25.60;99.90;;;;;;5082163;28;37379;-84
2023/09/09 09:06:49;;;;;;;20.90;18.75;;;25.80;99.90;;;;;;5079446;28;38177;-83
2023/09/09 09:09:16;;;;;;;18.33;15.82;;;25.80;99.90;;;;;;5079369;28;38275;-82
2023/09/09 09:11:44;;;;;;;16.95;14.95;;;25.60;93.70;;;;;;5083316;28;37523;-87
2023/09/09 09:14:10;;;;;;;12.57;11.27;;;25.70;97.70;;;;;;5066664;28;38774;-88
2023/09/09 09:16:40;;;;;;;11.68;9.85;;;25.70;90.50;;;;;;5088002;28;37261;-90
2023/09/09 09:19:17;;;;;;;8.73;7.93;;;25.80;64.40;;;;;;5078625;28;38686;-84
2023/09/09 09:21:44;;;;;;;9.60;8.60;;;26.00;99.90;;;;;;5083183;28;37703;-83
2023/09/09 09:24:10;;;;;;;10.30;8.40;;;26.10;62.70;;;;;;5086667;28;37973;-82
2023/09/09 09:26:37;;;;;;;9.43;7.80;;;26.20;75.30;;;;;;5081917;28;38391;-81
2023/09/09 09:29:06;;;;;;;10.02;7.68;;;26.30;93.10;;;;;;5079060;28;39056;-82
2023/09/09 09:31:33;;;;;;;7.45;6.15;;;26.50;64.70;;;;;;5083284;28;38761;-81
2023/09/09 09:33:59;;;;;;;11.35;9.00;;;26.60;91.10;;;;;;5085092;28;37935;-80
2023/09/09 09:36:27;;;;;;;14.95;7.97;;;26.80;62.90;;;;;;5078321;28;37731;-82
2023/09/09 09:38:53;;;;;;;12.68;10.00;;;27.00;37.30;;;;;;5085229;28;37811;-83
2023/09/09 09:41:21;;;;;;;11.18;9.52;;;27.10;58.30;;;;;;5085068;28;38132;-83
2023/09/09 09:43:49;;;;;;;12.70;9.65;;;27.10;36.70;;;;;;5077535;28;37050;-82
2023/09/09 09:46:16;;;;;;;9.68;8.77;;;27.00;46.40;;;;;;5082737;28;37328;-80
2023/09/09 09:48:43;;;;;;;13.55;11.02;;;27.10;79.70;;;;;;5087111;28;37968;-81
2023/09/09 09:51:10;;;;;;;10.95;9.60;;;27.40;56.80;;;;;;5085170;28;37164;-79
2023/09/09 09:53:48;;;;;;;16.70;11.57;;;27.60;57.70;;;;;;5082064;28;38120;-81
2023/09/09 09:56:15;;;;;;;10.38;8.10;;;27.60;39.70;;;;;;5081568;28;35663;-81
2023/09/09 09:58:44;;;;;;;12.30;9.90;;;27.70;66.70;;;;;;5085009;28;37673;-80
2023/09/09 10:01:11;;;;;;;14.32;10.07;;;27.90;54.40;;;;;;5081503;28;38673;-82
2023/09/09 10:03:57;;;;;;;9.38;8.43;;;28.10;36.10;;;;;;5078214;28;36983;-81
2023/09/09 10:06:28;;;;;;;21.67;10.70;;;28.20;41.20;;;;;;5081482;28;36927;-83
2023/09/09 10:09:09;;;;;;;10.40;9.40;;;28.20;20.20;;;;;;5089446;28;37485;-81
2023/09/09 10:11:44;;;;;;;11.75;10.57;;;28.30;52.50;;;;;;5097517;27;47334;-83
2023/09/09 10:14:14;;;;;;;12.10;10.93;;;28.40;49.00;;;;;;5089121;28;38083;-83
2023/09/09 10:16:42;;;;;;;11.07;9.23;;;28.30;28.10;;;;;;5086871;28;37824;-83
2023/09/09 10:19:11;;;;;;;17.10;14.32;;;28.50;26.20;;;;;;5085610;28;38963;-83
2023/09/09 10:21:38;;;;;;;12.25;10.10;;;28.60;5.70;;;;;;5078257;28;39224;-83
2023/09/09 10:24:07;;;;;;;12.95;11.00;;;28.70;33.00;;;;;;5082131;28;38306;-84
2023/09/09 10:26:36;;;;;;;14.30;10.98;;;28.60;1.10;;;;;;5072738;28;37051;-83
2023/09/09 10:29:03;;;;;;;14.90;10.82;;;28.60;10.70;;;;;;5078102;28;38829;-83
2023/09/09 10:31:31;;;;;;;13.63;12.23;;;28.70;23.10;;;;;;5069544;28;37568;-82
2023/09/09 10:34:01;;;;;;;15.60;14.00;;;28.80;14.40;;;;;;5067844;28;38563;-82
2023/09/09 10:36:31;;;;;;;14.27;11.65;;;28.80;1.00;;;;;;5075574;28;47991;-85
2023/09/09 10:38:57;;;;;;;13.07;11.77;;;28.80;3.60;;;;;;5078347;28;39685;-86
2023/09/09 10:41:24;;;;;;;13.32;11.88;;;28.80;7.00;;;;;;5085984;28;37381;-87
2023/09/09 10:43:50;;;;;;;10.25;9.23;;;29.00;15.50;;;;;;5085373;28;37862;-84
2023/09/09 10:46:16;;;;;;;10.70;8.13;;;29.20;9.40;;;;;;5078052;28;37069;-86
2023/09/09 10:48:44;;;;;;;9.57;8.57;;;29.20;41.50;;;;;;5091576;28;38123;-88
2023/09/09 10:51:15;;;;;;;10.75;8.30;;;29.10;1.00;;;;;;5078955;28;37652;-84
2023/09/09 10:53:41;;;;;;;9.27;8.35;;;29.30;11.10;;;;;;5083227;28;36038;-85
2023/09/09 10:56:17;;;;;;;10.23;9.32;;;29.50;3.30;;;;;;5092735;27;37630;-87
2023/09/09 10:58:44;;;;;;;13.45;10.07;;;29.40;1.00;;;;;;5089626;28;40270;-87
2023/09/09 11:01:24;;;;;;;9.98;8.75;;;28.80;1.00;;;;;;5087217;28;38852;-87
2023/09/09 11:03:51;;;;;;;13.68;12.30;;;28.80;8.10;;;;;;5071876;28;37295;-88
2023/09/09 11:06:24;;;;;;;10.00;8.20;;;28.60;1.00;;;;;;5085256;28;37031;-86
2023/09/09 11:08:54;;;;;;;12.07;10.57;;;28.50;2.50;;;;;;5087298;28;38701;-87
2023/09/09 11:11:26;;;;;;;11.23;8.48;;;28.50;1.00;;;;;;5087360;27;39001;-89
2023/09/09 11:13:59;;;;;;;;;;;28.70;8.20;;;;;;5093406;28;37351;-88
2023/09/09 11:16:26;;;;;;;10.40;8.13;;;28.50;1.00;;;;;;5104118;28;36625;-90
2023/09/09 11:18:55;;;;;;;10.88;7.50;;;28.50;5.30;;;;;;5090749;28;37542;-88
2023/09/09 11:21:22;;;;;;;11.57;8.57;;;28.60;29.50;;;;;;5092272;28;38390;-88
2023/09/09 11:23:52;;;;;;;13.13;10.48;;;28.80;1.00;;;;;;5089698;28;37981;-89
2023/09/09 11:26:19;;;;;;;10.77;8.18;;;28.40;1.00;;;;;;5079991;28;38005;-88
2023/09/09 11:28:47;;;;;;;8.75;7.60;;;28.40;15.80;;;;;;5094547;28;38751;-89
2023/09/09 11:31:15;;;;;;;11.68;10.15;;;28.70;34.90;;;;;;5090576;28;37838;-87
2023/09/09 11:33:41;;;;;;;13.90;10.38;;;28.60;1.00;;;;;;5086136;28;37281;-88
2023/09/09 11:36:08;;;;;;;10.85;8.60;;;28.50;1.00;;;;;;5092779;28;37409;-88
2023/09/09 11:38:35;;;;;;;11.45;10.18;;;28.70;6.90;;;;;;5088562;28;39100;-89
2023/09/09 11:41:01;;;;;;;12.20;10.88;;;28.80;1.00;;;;;;5085493;28;39132;-87
2023/09/09 11:43:27;;;;;;;12.52;7.97;;;29.00;1.00;;;;;;5088519;28;48884;-89
2023/09/09 11:45:55;;;;;;;16.02;12.07;;;28.90;13.50;;;;;;5084759;28;36425;-88
2023/09/09 11:48:25;;;;;;;15.00;11.48;;;28.90;1.00;;;;;;5083445;28;38141;-89
2023/09/09 11:50:52;;;;;;;12.10;10.75;;;28.90;1.00;;;;;;5092188;28;38103;-87
2023/09/09 11:53:24;;;;;;;12.50;10.98;;;28.60;1.00;;;;;;5095282;28;38035;-89
2023/09/09 11:55:53;;;;;;;10.85;9.73;;;28.70;1.00;;;;;;5085891;28;38237;-89
2023/09/09 11:58:19;;;;;;;13.73;9.65;;;28.70;1.00;;;;;;5087682;28;38734;-87
2023/09/09 12:00:46;;;;;;;12.02;10.45;;;29.00;1.00;;;;;;5082844;28;40033;-88
2023/09/09 12:03:20;;;;;;;9.95;8.70;;;28.90;1.00;;;;;;5084946;28;38715;-85
2023/09/09 12:05:50;;;;;;;11.82;9.30;;;28.90;1.00;;;;;;5103206;27;36181;-84
2023/09/09 12:08:16;;;;;;;10.55;9.30;;;28.70;1.00;;;;;;5082957;28;38302;-81
2023/09/09 12:10:44;;;;;;;19.55;11.63;;;28.70;1.00;;;;;;5082199;28;38609;-86
2023/09/09 12:13:11;;;;;;;11.90;9.70;;;28.80;1.00;;;;;;5083459;27;38440;-86
2023/09/09 12:15:38;;;;;;;12.15;10.38;;;28.90;1.00;;;;;;5089508;28;38172;-88
2023/09/09 12:18:14;;;;;;;13.70;10.50;;;29.10;1.00;;;;;;5089028;28;37444;-86
2023/09/09 12:21:05;;;;;;;13.25;8.00;;;28.90;1.00;;;;;;5095769;28;37892;-88
2023/09/09 12:23:36;;;;;;;13.93;8.82;;;29.10;1.00;;;;;;5091731;28;48330;-88
2023/09/09 12:26:12;;;;;;;14.10;9.00;;;29.20;1.00;;;;;;5095623;28;37185;-87
2023/09/09 12:28:43;;;;;;;13.73;9.40;;;29.30;1.00;;;;;;5090559;28;38294;-86
2023/09/09 12:31:14;;;;;;;11.23;8.30;;;29.10;1.00;;;;;;5078407;27;37225;-90
2023/09/09 12:33:51;;;;;;;12.57;9.53;;;28.90;1.00;;;;;;5083138;28;36833;-88